Time;durP1;ratioP1;P1;durP2;ratioP2;P2;SDS_P1;SDS_P2;PMS_P1;PMS_P2;Temp;Humidity;BMP_temperature;BMP_pressure;BME280_temperature;BME280_humidity;BME280_pressure;Samples;Min_cycle;Max_cycle;Signal;HPM_P1;HPM_P2
2022/10/13 00:00:21;;;;;;;20.25;7.28;;;11.30;99.90;;;;;;4992298;28;20030;-73
2022/10/13 00:02:47;;;;;;;12.70;5.95;;;11.40;99.90;;;;;;5006108;28;20055;-72
2022/10/13 00:05:12;;;;;;;15.80;5.75;;;11.40;99.90;;;;;;5011736;28;20162;-73
2022/10/13 00:07:38;;;;;;;10.88;6.07;;;11.40;99.90;;;;;;5011701;28;20033;-73
2022/10/13 00:10:04;;;;;;;12.13;5.38;;;11.50;99.90;;;;;;5011513;28;20509;-73
2022/10/13 00:12:34;;;;;;;11.10;6.20;;;11.50;99.90;;;;;;4993613;28;20022;-73
2022/10/13 00:15:00;;;;;;;10.48;4.88;;;11.50;99.90;;;;;;4994281;28;20423;-73
2022/10/13 00:17:25;;;;;;;15.82;4.90;;;11.50;99.90;;;;;;5011599;28;20124;-72
2022/10/13 00:19:51;;;;;;;8.80;5.05;;;11.60;99.90;;;;;;5011150;28;20026;-72
2022/10/13 00:22:16;;;;;;;12.18;5.63;;;11.60;99.90;;;;;;4997816;28;20030;-72
2022/10/13 00:24:42;;;;;;;10.35;4.93;;;11.50;99.90;;;;;;4993454;28;20120;-72
2022/10/13 00:27:08;;;;;;;11.13;4.70;;;11.50;99.90;;;;;;5010103;28;20026;-73
2022/10/13 00:29:34;;;;;;;7.90;4.18;;;11.60;99.90;;;;;;5011129;28;20034;-73
2022/10/13 00:31:59;;;;;;;17.38;6.32;;;11.50;99.90;;;;;;5011234;28;20441;-73
2022/10/13 00:34:25;;;;;;;13.27;4.55;;;11.40;99.90;;;;;;5010040;28;20150;-73
2022/10/13 00:36:51;;;;;;;11.57;5.57;;;11.50;99.90;;;;;;5011128;28;20037;-73
2022/10/13 00:39:16;;;;;;;10.32;5.50;;;11.40;99.90;;;;;;4993745;28;20034;-73
2022/10/13 00:41:42;;;;;;;9.52;4.80;;;11.30;99.90;;;;;;5011170;28;20037;-73
2022/10/13 00:45:04;;;;;;;14.90;5.75;;;11.40;99.90;;;;;;5010836;28;20219;-73
2022/10/13 00:47:47;;;;;;;8.77;4.68;;;11.30;99.90;;;;;;5011131;28;20029;-73
2022/10/13 00:50:21;;;;;;;11.52;5.38;;;11.30;99.90;;;;;;5011030;28;20033;-73
2022/10/13 00:52:49;;;;;;;12.35;5.13;;;11.30;99.90;;;;;;4993635;28;20389;-73
2022/10/13 00:55:19;;;;;;;7.03;4.20;;;11.30;99.90;;;;;;4993645;28;20156;-73
2022/10/13 00:57:47;;;;;;;12.13;5.85;;;11.30;99.90;;;;;;4993943;28;20549;-73
2022/10/13 01:00:13;;;;;;;8.80;4.18;;;11.20;99.90;;;;;;4993460;28;20545;-73
2022/10/13 01:02:39;;;;;;;11.30;5.38;;;11.30;99.90;;;;;;4992549;28;20065;-73
2022/10/13 01:05:06;;;;;;;10.30;4.55;;;11.40;99.90;;;;;;5007464;28;20474;-72
2022/10/13 01:07:34;;;;;;;18.50;6.00;;;11.40;99.90;;;;;;4973266;28;20061;-72
2022/10/13 01:10:01;;;;;;;12.70;5.65;;;11.40;99.90;;;;;;5021932;28;20025;-72
2022/10/13 01:12:45;;;;;;;13.65;4.72;;;11.40;99.90;;;;;;4994409;28;20041;-72
2022/10/13 01:16:24;;;;;;;12.70;5.45;;;11.30;99.90;;;;;;5010596;28;20048;-73
2022/10/13 01:19:16;;;;;;;14.65;5.97;;;11.30;99.90;;;;;;4950120;29;20626;-73
2022/10/13 01:22:13;;;;;;;10.25;3.90;;;11.40;99.90;;;;;;4995731;28;20537;-73
2022/10/13 01:24:55;;;;;;;12.60;5.32;;;11.40;99.90;;;;;;4997315;28;20518;-73
2022/10/13 01:27:57;;;;;;;10.27;5.57;;;11.40;99.90;;;;;;4973540;28;20030;-73
2022/10/13 01:30:23;;;;;;;10.55;5.93;;;11.50;99.90;;;;;;4991150;28;20544;-73
2022/10/13 01:33:07;;;;;;;14.18;4.70;;;11.50;99.90;;;;;;5000791;28;20038;-73
2022/10/13 01:35:48;;;;;;;8.15;4.93;;;11.20;99.90;;;;;;4990886;28;20027;-73
2022/10/13 01:38:38;;;;;;;6.30;4.53;;;11.10;99.90;;;;;;4992163;28;20450;-73
2022/10/13 01:41:31;;;;;;;14.35;5.30;;;11.10;99.90;;;;;;5002331;28;20034;-73
2022/10/13 01:44:05;;;;;;;7.88;4.75;;;11.20;99.90;;;;;;5012808;28;20034;-73
2022/10/13 01:46:41;;;;;;;10.18;4.63;;;11.30;99.90;;;;;;5014339;28;20040;-73
2022/10/13 01:49:13;;;;;;;9.90;4.78;;;11.30;99.90;;;;;;5012555;28;20095;-73
2022/10/13 01:51:41;;;;;;;10.98;6.05;;;11.30;99.90;;;;;;5012648;28;20441;-72
2022/10/13 01:54:06;;;;;;;8.63;5.05;;;11.30;99.90;;;;;;5012279;28;20468;-72
2022/10/13 01:56:32;;;;;;;12.07;4.65;;;11.20;99.90;;;;;;5014164;28;20100;-72
2022/10/13 01:59:10;;;;;;;10.25;4.57;;;11.30;99.90;;;;;;5014033;28;20061;-72
2022/10/13 02:01:54;;;;;;;9.63;5.57;;;11.20;99.90;;;;;;5012826;28;20092;-73
2022/10/13 02:05:01;;;;;;;9.95;3.83;;;11.20;99.90;;;;;;5013489;28;20038;-73
2022/10/13 02:08:16;;;;;;;6.25;3.97;;;11.20;99.90;;;;;;5013908;28;20034;-73
2022/10/13 02:11:08;;;;;;;13.02;5.10;;;11.20;99.90;;;;;;5012525;28;20394;-73
2022/10/13 02:13:37;;;;;;;9.73;3.78;;;11.00;99.90;;;;;;5009225;28;20109;-73
2022/10/13 02:16:03;;;;;;;8.77;4.85;;;11.00;99.90;;;;;;5001435;28;20556;-72
2022/10/13 02:18:33;;;;;;;8.80;3.88;;;11.00;99.90;;;;;;4992724;28;20080;-73
2022/10/13 02:21:02;;;;;;;9.80;4.18;;;11.00;99.90;;;;;;4992872;28;20030;-73
2022/10/13 02:23:28;;;;;;;9.45;4.47;;;11.00;99.90;;;;;;4992438;28;20037;-73
2022/10/13 02:25:56;;;;;;;10.80;5.82;;;10.90;99.90;;;;;;4976280;28;20026;-73
2022/10/13 02:28:22;;;;;;;8.52;4.32;;;10.90;99.90;;;;;;5001830;28;20121;-72
2022/10/13 02:30:48;;;;;;;6.80;3.92;;;10.90;99.90;;;;;;4996060;28;20081;-72
2022/10/13 02:33:15;;;;;;;9.98;4.97;;;10.90;99.90;;;;;;5012957;28;20026;-73
2022/10/13 02:35:42;;;;;;;11.02;5.10;;;10.80;99.90;;;;;;4995731;28;20034;-73
2022/10/13 02:38:08;;;;;;;13.15;5.28;;;10.70;99.90;;;;;;4995825;28;20034;-73
2022/10/13 02:40:33;;;;;;;12.63;5.75;;;10.60;99.90;;;;;;5013276;28;20113;-73
2022/10/13 02:42:59;;;;;;;11.32;5.03;;;10.60;99.90;;;;;;5012841;28;20104;-72
2022/10/13 02:45:25;;;;;;;19.38;6.53;;;10.60;99.90;;;;;;4995780;28;20484;-72
2022/10/13 02:47:51;;;;;;;7.55;4.65;;;10.60;99.90;;;;;;4995546;28;20022;-72
2022/10/13 02:50:17;;;;;;;19.80;4.95;;;10.60;99.90;;;;;;5012349;28;20053;-73
2022/10/13 02:52:42;;;;;;;9.00;4.97;;;10.60;99.90;;;;;;5012759;28;20118;-73
2022/10/13 02:55:08;;;;;;;15.32;4.85;;;10.50;99.90;;;;;;4995201;28;20111;-72
2022/10/13 02:57:35;;;;;;;13.40;4.80;;;10.40;99.90;;;;;;5012977;28;20116;-72
2022/10/13 03:00:00;;;;;;;11.43;4.47;;;10.30;99.90;;;;;;4995422;28;20072;-72
2022/10/13 03:02:27;;;;;;;13.60;6.82;;;10.30;99.90;;;;;;5009897;28;20159;-72
2022/10/13 03:04:53;;;;;;;12.95;5.28;;;10.30;99.90;;;;;;5007723;28;20041;-72
2022/10/13 03:07:18;;;;;;;16.45;5.93;;;10.30;99.90;;;;;;5004714;28;20109;-73
2022/10/13 03:09:44;;;;;;;13.13;6.68;;;10.30;99.90;;;;;;5012331;28;20631;-72
2022/10/13 03:12:10;;;;;;;11.93;5.25;;;10.30;99.90;;;;;;4994586;28;20101;-72
2022/10/13 03:14:36;;;;;;;14.93;6.93;;;10.30;99.90;;;;;;4991503;28;20386;-73
2022/10/13 03:17:02;;;;;;;10.45;5.50;;;10.40;99.90;;;;;;4991873;28;20109;-73
2022/10/13 03:19:28;;;;;;;12.07;6.97;;;10.40;99.90;;;;;;4979724;28;20108;-73
2022/10/13 03:21:54;;;;;;;28.35;6.20;;;10.50;99.90;;;;;;5010976;28;20466;-72
2022/10/13 03:24:19;;;;;;;14.77;6.35;;;10.50;99.90;;;;;;5012148;28;20037;-73
2022/10/13 03:26:45;;;;;;;15.77;6.65;;;10.50;99.90;;;;;;5012187;28;20218;-73
2022/10/13 03:29:14;;;;;;;14.00;6.18;;;10.50;99.90;;;;;;5012017;28;20493;-73
2022/10/13 03:31:40;;;;;;;13.18;5.55;;;10.60;99.90;;;;;;4994455;28;20080;-73
2022/10/13 03:34:07;;;;;;;18.88;6.47;;;10.50;99.90;;;;;;5011661;28;20389;-74
2022/10/13 03:36:33;;;;;;;13.68;7.38;;;10.60;99.90;;;;;;5012062;28;20033;-74
2022/10/13 03:38:59;;;;;;;10.73;5.55;;;10.50;99.90;;;;;;5010872;28;20034;-74
2022/10/13 03:41:24;;;;;;;12.20;4.93;;;10.50;99.90;;;;;;5012089;28;20038;-74
2022/10/13 03:43:50;;;;;;;12.40;6.65;;;10.50;99.90;;;;;;5009899;28;20037;-74
2022/10/13 03:46:17;;;;;;;11.73;5.47;;;10.50;99.90;;;;;;4993928;28;20042;-73
2022/10/13 03:48:45;;;;;;;11.13;5.07;;;10.50;99.90;;;;;;4951449;28;20066;-74
2022/10/13 03:51:15;;;;;;;14.55;6.97;;;10.60;99.90;;;;;;5003779;28;20885;-73
2022/10/13 03:53:41;;;;;;;12.25;6.03;;;10.70;99.90;;;;;;4977485;28;20040;-74
2022/10/13 03:56:11;;;;;;;11.75;6.05;;;10.60;99.90;;;;;;5011733;28;20038;-74
2022/10/13 03:58:37;;;;;;;12.20;5.47;;;10.60;99.90;;;;;;4994431;28;20124;-74
2022/10/13 04:01:04;;;;;;;7.90;4.70;;;10.70;99.90;;;;;;5010784;28;20061;-74
2022/10/13 04:03:32;;;;;;;14.10;6.10;;;10.70;99.90;;;;;;5011037;28;20401;-74
2022/10/13 04:06:03;;;;;;;9.80;5.63;;;10.70;99.90;;;;;;4951264;28;20034;-73
2022/10/13 04:08:31;;;;;;;13.75;6.47;;;10.80;99.90;;;;;;4974248;28;20414;-74
2022/10/13 04:10:59;;;;;;;12.15;5.80;;;10.70;99.90;;;;;;4974234;28;20022;-74
2022/10/13 04:13:25;;;;;;;14.57;6.93;;;10.70;99.90;;;;;;4991233;28;20067;-74
2022/10/13 04:15:50;;;;;;;12.13;6.38;;;10.60;99.90;;;;;;5004866;28;20155;-74
2022/10/13 04:18:16;;;;;;;16.77;6.15;;;10.60;99.90;;;;;;5011343;28;20040;-74
2022/10/13 04:20:42;;;;;;;11.45;4.78;;;10.60;99.90;;;;;;5011200;28;20034;-74
2022/10/13 04:23:07;;;;;;;16.35;6.72;;;10.70;99.90;;;;;;4993436;28;20121;-73
2022/10/13 04:25:36;;;;;;;16.83;6.22;;;10.80;99.90;;;;;;4993539;28;20029;-73
2022/10/13 04:28:04;;;;;;;15.82;6.07;;;10.70;99.90;;;;;;4993682;28;20034;-73
2022/10/13 04:30:35;;;;;;;12.10;5.45;;;10.70;99.90;;;;;;4999109;28;20033;-73
2022/10/13 04:33:01;;;;;;;15.43;5.72;;;10.60;99.90;;;;;;4991086;28;20121;-73
2022/10/13 04:35:26;;;;;;;11.70;6.35;;;10.60;99.90;;;;;;4946332;28;20038;-73
2022/10/13 04:37:52;;;;;;;12.20;5.60;;;10.70;99.90;;;;;;4976239;28;20443;-73
2022/10/13 04:40:18;;;;;;;11.65;5.68;;;10.70;99.90;;;;;;4991458;28;20042;-73
2022/10/13 04:42:44;;;;;;;13.20;7.15;;;10.70;99.90;;;;;;4989792;28;20037;-73
2022/10/13 04:45:09;;;;;;;12.02;6.25;;;10.80;99.90;;;;;;4991236;28;20105;-73
2022/10/13 04:47:36;;;;;;;15.77;7.95;;;10.80;99.90;;;;;;4991148;28;20482;-73
2022/10/13 04:50:03;;;;;;;16.77;5.88;;;10.80;99.90;;;;;;4973619;28;20634;-75
2022/10/13 04:52:28;;;;;;;10.25;5.95;;;10.80;99.90;;;;;;4989753;28;20109;-72
2022/10/13 04:54:54;;;;;;;12.77;5.85;;;10.90;99.90;;;;;;4990924;28;20093;-72
2022/10/13 04:57:20;;;;;;;19.88;7.00;;;10.90;99.90;;;;;;4991082;28;20038;-73
2022/10/13 04:59:45;;;;;;;19.02;8.77;;;10.90;99.90;;;;;;4990860;28;20030;-72
2022/10/13 05:02:11;;;;;;;10.93;5.85;;;10.90;99.90;;;;;;4973086;28;20038;-74
2022/10/13 05:04:37;;;;;;;11.85;6.50;;;10.90;99.90;;;;;;4989485;28;20030;-75
2022/10/13 05:07:03;;;;;;;14.57;7.60;;;10.90;99.90;;;;;;4989576;28;20068;-73
2022/10/13 05:09:29;;;;;;;20.95;6.40;;;11.00;99.90;;;;;;4989650;28;20069;-73
2022/10/13 05:11:55;;;;;;;16.92;7.03;;;11.00;99.90;;;;;;5005285;28;20022;-73
2022/10/13 05:14:21;;;;;;;13.20;6.07;;;11.10;99.90;;;;;;5008132;28;20034;-74
2022/10/13 05:16:47;;;;;;;12.73;7.53;;;11.20;99.90;;;;;;4990797;28;20030;-74
2022/10/13 05:19:13;;;;;;;16.42;7.25;;;11.30;99.90;;;;;;4990973;28;20033;-69
2022/10/13 05:21:39;;;;;;;19.95;7.85;;;11.10;99.90;;;;;;4989521;28;20035;-71
2022/10/13 05:24:05;;;;;;;15.77;6.57;;;11.00;99.90;;;;;;4989140;28;20138;-72
2022/10/13 05:26:34;;;;;;;20.70;6.93;;;11.00;99.90;;;;;;4989142;28;20046;-72
2022/10/13 05:29:01;;;;;;;18.00;7.70;;;11.20;99.90;;;;;;4987574;28;20053;-73
2022/10/13 05:31:29;;;;;;;19.92;8.10;;;11.00;99.90;;;;;;4987782;28;20490;-72
2022/10/13 05:33:55;;;;;;;15.73;7.68;;;11.00;99.90;;;;;;4987620;28;20447;-73
2022/10/13 05:36:25;;;;;;;22.05;8.30;;;11.10;99.90;;;;;;4989144;28;20060;-73
2022/10/13 05:38:57;;;;;;;16.17;6.93;;;11.20;99.90;;;;;;4988613;28;20030;-72
2022/10/13 05:41:24;;;;;;;11.52;6.10;;;11.10;99.90;;;;;;4989373;28;20034;-73
2022/10/13 05:43:57;;;;;;;14.88;7.55;;;11.00;99.90;;;;;;4972782;28;20061;-73
2022/10/13 05:46:23;;;;;;;21.08;7.20;;;11.10;99.90;;;;;;4973030;28;20440;-72
2022/10/13 05:48:49;;;;;;;12.90;6.78;;;11.10;99.90;;;;;;4973188;28;20502;-72
2022/10/13 05:51:28;;;;;;;13.57;5.60;;;11.00;99.90;;;;;;4989033;28;20034;-72
2022/10/13 05:54:14;;;;;;;62.67;32.63;;;11.00;99.90;;;;;;4989129;28;20494;-72
2022/10/13 05:56:53;;;;;;;14.55;7.15;;;11.00;99.90;;;;;;4973047;28;20034;-73
2022/10/13 05:59:20;;;;;;;14.15;6.95;;;11.00;99.90;;;;;;4989451;28;20080;-73
2022/10/13 06:01:46;;;;;;;18.23;7.82;;;11.00;99.90;;;;;;4992067;28;20022;-73
2022/10/13 06:04:23;;;;;;;17.70;8.50;;;11.20;99.90;;;;;;5009751;28;20061;-73
2022/10/13 06:06:49;;;;;;;17.52;6.90;;;11.20;99.90;;;;;;4989591;28;20040;-73
2022/10/13 06:09:15;;;;;;;18.05;7.47;;;11.10;99.90;;;;;;4973024;28;20026;-72
2022/10/13 06:11:41;;;;;;;15.65;7.55;;;11.00;99.90;;;;;;4985754;28;20022;-74
2022/10/13 06:14:06;;;;;;;14.70;7.03;;;11.10;99.90;;;;;;5009535;28;20041;-73
2022/10/13 06:16:35;;;;;;;23.58;8.02;;;11.00;99.90;;;;;;5010141;28;20026;-74
2022/10/13 06:19:03;;;;;;;9.82;4.97;;;11.00;99.90;;;;;;5008817;28;20034;-74
2022/10/13 06:21:29;;;;;;;19.08;5.50;;;11.10;99.90;;;;;;5010009;28;20124;-74
2022/10/13 06:23:54;;;;;;;11.32;5.47;;;11.10;99.90;;;;;;5009875;28;20133;-72
2022/10/13 06:26:20;;;;;;;15.30;8.15;;;11.10;99.90;;;;;;5013437;28;20126;-73
2022/10/13 06:28:46;;;;;;;18.38;7.43;;;11.20;99.90;;;;;;5012153;28;20030;-73
2022/10/13 06:31:13;;;;;;;18.67;8.07;;;11.20;99.90;;;;;;5010305;28;20642;-74
2022/10/13 06:33:38;;;;;;;22.73;8.65;;;11.10;99.90;;;;;;4993150;28;20030;-74
2022/10/13 06:36:05;;;;;;;25.10;9.20;;;11.10;99.90;;;;;;4993608;28;20026;-73
2022/10/13 06:38:32;;;;;;;18.95;9.10;;;11.10;99.90;;;;;;4976583;28;20026;-73
2022/10/13 06:41:00;;;;;;;23.88;7.82;;;11.10;99.90;;;;;;4976124;28;20034;-72
2022/10/13 06:43:26;;;;;;;23.90;9.13;;;11.10;99.90;;;;;;4993256;28;20030;-72
2022/10/13 06:45:52;;;;;;;24.60;9.40;;;11.10;99.90;;;;;;4976305;28;20058;-72
2022/10/13 06:48:18;;;;;;;29.27;10.25;;;11.20;99.90;;;;;;4993369;28;20686;-72
2022/10/13 06:50:43;;;;;;;27.65;9.70;;;11.20;99.90;;;;;;4975964;28;20045;-72
2022/10/13 06:53:09;;;;;;;24.60;9.60;;;11.30;99.90;;;;;;4993057;28;20033;-70
2022/10/13 06:55:35;;;;;;;33.83;10.75;;;11.30;99.90;;;;;;4993197;28;20054;-71
2022/10/13 06:58:00;;;;;;;29.15;8.60;;;11.30;99.90;;;;;;4993263;28;20034;-71
2022/10/13 07:00:26;;;;;;;19.63;8.85;;;11.40;99.90;;;;;;4993249;28;20431;-71
2022/10/13 07:02:52;;;;;;;21.00;7.80;;;11.50;99.90;;;;;;4992806;28;20041;-70
2022/10/13 07:05:18;;;;;;;14.93;9.07;;;11.50;99.90;;;;;;4992991;28;20105;-71
2022/10/13 07:07:44;;;;;;;18.42;7.85;;;11.50;99.90;;;;;;4993184;28;20026;-71
2022/10/13 07:10:09;;;;;;;18.55;9.38;;;11.60;99.90;;;;;;4993638;28;20037;-71
2022/10/13 07:12:35;;;;;;;18.15;7.75;;;11.70;99.90;;;;;;5012104;28;20437;-70
2022/10/13 07:15:00;;;;;;;15.80;7.28;;;11.90;99.90;;;;;;5012642;28;20041;-71
2022/10/13 07:17:26;;;;;;;19.70;7.97;;;11.90;99.90;;;;;;5012307;28;20033;-71
2022/10/13 07:19:52;;;;;;;17.35;7.97;;;12.00;99.90;;;;;;4994913;28;20026;-71
2022/10/13 07:22:18;;;;;;;15.40;8.23;;;12.10;99.90;;;;;;5010798;28;20026;-71
2022/10/13 07:24:43;;;;;;;29.52;9.40;;;12.20;99.90;;;;;;4999044;28;20035;-71
2022/10/13 07:27:09;;;;;;;12.65;6.80;;;12.30;99.90;;;;;;4992647;28;20463;-71
2022/10/13 07:29:35;;;;;;;14.63;7.32;;;12.30;99.90;;;;;;4992538;28;20062;-71
2022/10/13 07:32:00;;;;;;;22.48;7.82;;;12.40;99.90;;;;;;4992486;28;20038;-70
2022/10/13 07:34:26;;;;;;;14.82;6.82;;;12.30;99.90;;;;;;4992430;28;20046;-70
2022/10/13 07:36:52;;;;;;;13.43;6.22;;;12.30;99.90;;;;;;4990953;28;20026;-70
2022/10/13 07:39:17;;;;;;;17.08;7.70;;;12.20;99.90;;;;;;4992520;28;20034;-71
2022/10/13 07:41:43;;;;;;;18.38;7.53;;;12.30;99.90;;;;;;4991424;28;20038;-71
2022/10/13 07:44:09;;;;;;;20.13;7.05;;;12.40;99.90;;;;;;4990683;28;20049;-70
2022/10/13 07:46:34;;;;;;;19.08;7.63;;;12.30;99.90;;;;;;4991270;28;20027;-71
2022/10/13 07:49:00;;;;;;;20.05;8.10;;;12.30;99.90;;;;;;4992189;28;20045;-71
2022/10/13 07:51:26;;;;;;;15.45;6.45;;;12.40;99.90;;;;;;4992650;28;20038;-71
2022/10/13 07:53:51;;;;;;;20.15;9.68;;;12.50;99.90;;;;;;4992042;28;20041;-71
2022/10/13 07:56:17;;;;;;;14.60;7.82;;;12.70;99.90;;;;;;4992235;28;20046;-73
2022/10/13 07:58:45;;;;;;;21.42;8.30;;;12.50;99.90;;;;;;4990944;28;20034;-73
2022/10/13 08:01:13;;;;;;;23.25;10.73;;;12.50;99.90;;;;;;4992228;28;20088;-73
2022/10/13 08:03:40;;;;;;;14.23;7.28;;;12.90;99.90;;;;;;4990755;28;20064;-73
2022/10/13 08:06:06;;;;;;;14.98;6.55;;;13.10;99.90;;;;;;4991728;28;20022;-73
2022/10/13 08:08:33;;;;;;;17.60;7.03;;;13.20;99.90;;;;;;4974572;28;20121;-73
2022/10/13 08:11:05;;;;;;;16.88;6.40;;;13.30;99.90;;;;;;4981909;28;20477;-73
2022/10/13 08:13:32;;;;;;;16.45;6.40;;;13.50;99.90;;;;;;5010493;22;20078;-73
2022/10/13 08:16:02;;;;;;;16.80;7.35;;;13.60;99.90;;;;;;4981366;28;20034;-72
2022/10/13 08:18:29;;;;;;;13.68;5.70;;;13.50;99.90;;;;;;4971332;28;20035;-72
2022/10/13 08:20:55;;;;;;;11.27;6.28;;;13.40;99.90;;;;;;4971223;28;20034;-73
2022/10/13 08:23:20;;;;;;;17.00;6.93;;;13.60;99.90;;;;;;4970877;28;20031;-73
2022/10/13 08:25:46;;;;;;;22.27;6.57;;;13.70;99.90;;;;;;4983613;28;20037;-73
2022/10/13 08:28:38;;;;;;;12.13;5.63;;;13.50;99.90;;;;;;4991445;28;20153;-73
2022/10/13 08:31:04;;;;;;;10.50;4.60;;;13.50;99.90;;;;;;4988854;28;20054;-73
2022/10/13 08:33:30;;;;;;;12.30;5.22;;;13.40;99.90;;;;;;4991205;28;20031;-72
2022/10/13 08:35:55;;;;;;;11.35;5.25;;;13.50;99.90;;;;;;4991755;28;20430;-73
2022/10/13 08:38:21;;;;;;;11.00;6.15;;;13.40;99.90;;;;;;4991476;28;20041;-73
2022/10/13 08:40:49;;;;;;;12.05;6.18;;;13.50;99.90;;;;;;4991757;28;20051;-73
2022/10/13 08:43:19;;;;;;;14.50;4.85;;;13.60;99.90;;;;;;4991085;28;20027;-73
2022/10/13 08:45:49;;;;;;;14.30;6.40;;;13.60;99.90;;;;;;4974125;28;20202;-73
2022/10/13 08:48:29;;;;;;;21.33;5.47;;;13.50;99.90;;;;;;4973451;28;20034;-74
2022/10/13 08:50:59;;;;;;;16.15;6.65;;;13.50;99.90;;;;;;4991386;28;20032;-73
2022/10/13 08:53:35;;;;;;;15.80;6.20;;;13.40;99.90;;;;;;4974111;28;20023;-73
2022/10/13 08:56:13;;;;;;;8.95;4.15;;;13.40;99.90;;;;;;4974143;28;20053;-73
2022/10/13 08:58:41;;;;;;;10.55;4.82;;;13.30;99.90;;;;;;4991374;28;20037;-73
2022/10/13 09:01:16;;;;;;;17.52;6.68;;;13.40;99.90;;;;;;4973892;28;20506;-73
2022/10/13 09:03:56;;;;;;;14.18;6.63;;;13.50;99.90;;;;;;4973835;28;20038;-73
2022/10/13 09:06:38;;;;;;;13.80;5.53;;;13.40;99.90;;;;;;4974218;28;20559;-73
2022/10/13 09:09:09;;;;;;;12.25;5.90;;;13.40;99.90;;;;;;4974293;28;20041;-73
2022/10/13 09:11:41;;;;;;;11.07;5.45;;;13.60;99.90;;;;;;4986138;28;20490;-73
2022/10/13 09:14:11;;;;;;;9.70;5.60;;;13.50;99.90;;;;;;4992951;28;20038;-73
2022/10/13 09:16:42;;;;;;;11.82;5.35;;;13.50;99.90;;;;;;4993312;28;20034;-74
2022/10/13 09:19:19;;;;;;;9.73;5.18;;;13.60;99.90;;;;;;5010717;28;20493;-74
2022/10/13 09:21:46;;;;;;;12.15;5.72;;;13.50;99.90;;;;;;5010868;28;20121;-74
2022/10/13 09:24:16;;;;;;;11.98;5.97;;;13.60;99.90;;;;;;5010224;28;20041;-74
2022/10/13 09:26:44;;;;;;;12.20;5.68;;;13.40;99.90;;;;;;4993366;28;20688;-74
2022/10/13 09:29:29;;;;;;;15.38;5.63;;;13.40;99.90;;;;;;5010537;28;20079;-73
2022/10/13 09:32:22;;;;;;;10.52;4.80;;;13.50;99.90;;;;;;4985753;28;20473;-73
2022/10/13 09:34:49;;;;;;;12.45;5.10;;;13.40;99.90;;;;;;4974123;28;20026;-74
2022/10/13 09:37:24;;;;;;;9.60;5.60;;;13.40;99.90;;;;;;4991016;28;20058;-73
2022/10/13 09:40:19;;;;;;;15.10;6.47;;;13.40;99.90;;;;;;4973764;28;20097;-74
2022/10/13 09:42:51;;;;;;;13.50;6.53;;;13.30;99.90;;;;;;4974155;28;20037;-73
2022/10/13 09:45:21;;;;;;;15.80;6.80;;;13.40;99.90;;;;;;4973440;28;20034;-73
2022/10/13 09:48:12;;;;;;;14.45;6.57;;;13.30;99.90;;;;;;4973884;28;20030;-73
2022/10/13 09:50:48;;;;;;;11.88;5.45;;;13.20;99.90;;;;;;4975846;28;20515;-74
2022/10/13 09:53:38;;;;;;;11.73;5.75;;;13.40;99.90;;;;;;4973408;28;20065;-73
2022/10/13 09:56:29;;;;;;;10.57;5.57;;;13.30;99.90;;;;;;4974158;28;20506;-73
2022/10/13 09:59:20;;;;;;;25.20;7.00;;;13.20;99.90;;;;;;4980882;28;20018;-73
2022/10/13 10:01:48;;;;;;;16.80;5.60;;;13.20;99.90;;;;;;4994477;28;20100;-74
2022/10/13 10:04:23;;;;;;;10.23;5.95;;;13.20;99.90;;;;;;4994091;28;20022;-73
2022/10/13 10:06:48;;;;;;;16.13;5.65;;;13.20;99.90;;;;;;4977620;28;20029;-74
2022/10/13 10:09:35;;;;;;;13.32;5.60;;;13.20;99.90;;;;;;4993715;28;20035;-74
2022/10/13 10:12:03;;;;;;;13.93;5.63;;;13.20;99.90;;;;;;5010042;28;20492;-73
2022/10/13 10:14:37;;;;;;;14.70;5.65;;;13.30;99.90;;;;;;4995812;28;20041;-74
2022/10/13 10:17:23;;;;;;;11.65;6.40;;;13.20;99.90;;;;;;4996306;28;20386;-73
2022/10/13 10:20:12;;;;;;;14.10;6.20;;;13.10;99.90;;;;;;4996030;28;20044;-74
2022/10/13 10:23:16;;;;;;;15.73;5.75;;;13.30;99.90;;;;;;4974426;28;20058;-74
2022/10/13 10:25:58;;;;;;;13.10;7.28;;;13.30;99.90;;;;;;4959307;28;20027;-73
2022/10/13 10:28:47;;;;;;;15.35;6.38;;;13.30;99.90;;;;;;4941876;28;20262;-73
2022/10/13 10:31:52;;;;;;;13.43;6.28;;;13.20;99.90;;;;;;4976200;28;20031;-73
2022/10/13 10:34:42;;;;;;;15.98;6.72;;;13.20;99.90;;;;;;4993450;28;20030;-72
2022/10/13 10:37:15;;;;;;;11.93;6.00;;;13.20;99.90;;;;;;4994048;28;20109;-72
2022/10/13 10:40:33;;;;;;;13.48;5.28;;;13.30;99.90;;;;;;4976800;28;20022;-74
2022/10/13 10:43:48;;;;;;;13.77;6.20;;;13.40;99.90;;;;;;4993327;28;20136;-73
2022/10/13 10:46:28;;;;;;;17.77;7.82;;;13.60;99.90;;;;;;4993589;28;20459;-70
2022/10/13 10:49:00;;;;;;;15.40;6.75;;;13.60;99.90;;;;;;4977291;28;20406;-70
2022/10/13 10:51:36;;;;;;;10.98;4.88;;;13.60;99.90;;;;;;4976610;28;20022;-71
2022/10/13 10:54:34;;;;;;;17.98;6.80;;;13.90;99.90;;;;;;4976517;28;20040;-70
2022/10/13 10:57:28;;;;;;;13.15;5.78;;;14.00;99.90;;;;;;4988065;28;20046;-70
2022/10/13 11:00:08;;;;;;;11.82;5.40;;;13.90;99.90;;;;;;4977915;28;20042;-71
2022/10/13 11:03:06;;;;;;;13.05;6.55;;;13.90;99.90;;;;;;4993207;28;20069;-70
2022/10/13 11:06:19;;;;;;;12.77;5.95;;;14.00;99.90;;;;;;4993402;28;20406;-70
2022/10/13 11:08:47;;;;;;;18.02;7.07;;;14.10;99.90;;;;;;4993172;28;20034;-71
2022/10/13 11:11:22;;;;;;;15.27;6.55;;;14.30;99.90;;;;;;4984616;28;20030;-72
2022/10/13 11:14:05;;;;;;;18.17;5.40;;;14.40;99.90;;;;;;5012332;28;20034;-71
2022/10/13 11:16:51;;;;;;;11.82;5.80;;;14.30;99.90;;;;;;4996119;28;20039;-70
2022/10/13 11:19:36;;;;;;;17.25;6.05;;;14.30;99.90;;;;;;5012602;28;20041;-72
2022/10/13 11:22:02;;;;;;;13.20;5.40;;;14.40;99.90;;;;;;5012508;28;20073;-71
2022/10/13 11:24:40;;;;;;;15.57;6.88;;;14.60;99.90;;;;;;5012462;28;20064;-72
2022/10/13 11:27:14;;;;;;;15.57;5.70;;;14.70;99.90;;;;;;5012577;28;20036;-71
2022/10/13 11:29:42;;;;;;;13.05;5.70;;;14.80;99.90;;;;;;5012591;28;20130;-72
2022/10/13 11:32:26;;;;;;;15.30;5.55;;;15.10;99.90;;;;;;5003100;28;20513;-72
2022/10/13 11:35:04;;;;;;;13.85;5.18;;;15.20;99.90;;;;;;4992831;28;20041;-79
2022/10/13 11:37:56;;;;;;;9.40;5.32;;;15.20;99.90;;;;;;4993125;28;20030;-72
2022/10/13 11:40:40;;;;;;;11.25;5.43;;;15.10;99.90;;;;;;4992643;28;20042;-70
2022/10/13 11:43:20;;;;;;;11.00;5.10;;;15.20;99.90;;;;;;4992129;28;20026;-70
2022/10/13 11:45:53;;;;;;;15.83;6.70;;;15.00;99.90;;;;;;4976096;28;20034;-71
2022/10/13 11:48:49;;;;;;;13.88;5.88;;;15.20;99.90;;;;;;4992498;28;20526;-71
2022/10/13 11:51:29;;;;;;;10.40;5.65;;;15.60;99.90;;;;;;5009455;28;20034;-71
2022/10/13 11:54:22;;;;;;;12.23;5.07;;;15.80;99.90;;;;;;5011683;28;20164;-72
2022/10/13 11:56:58;;;;;;;10.38;5.45;;;15.70;99.90;;;;;;5011542;28;20037;-71
2022/10/13 11:59:27;;;;;;;15.02;6.40;;;16.40;99.90;;;;;;5012285;28;20034;-72
2022/10/13 12:02:04;;;;;;;13.93;6.22;;;16.90;99.90;;;;;;5004756;28;20030;-71
2022/10/13 12:04:30;;;;;;;9.10;4.63;;;16.10;99.90;;;;;;4992011;28;20041;-72
2022/10/13 12:07:10;;;;;;;14.05;6.15;;;16.00;99.90;;;;;;4974733;28;20038;-72
2022/10/13 12:09:48;;;;;;;17.73;6.00;;;16.30;99.90;;;;;;4975037;28;20034;-72
2022/10/13 12:12:18;;;;;;;11.65;5.28;;;16.50;99.90;;;;;;4975822;28;20048;-71
2022/10/13 12:14:49;;;;;;;13.18;6.55;;;16.30;99.90;;;;;;4994002;28;20463;-71
2022/10/13 12:17:24;;;;;;;14.05;6.13;;;16.80;99.90;;;;;;4994268;28;20482;-72
2022/10/13 12:19:54;;;;;;;9.93;4.82;;;16.50;99.90;;;;;;5011585;28;20065;-71
2022/10/13 12:22:20;;;;;;;11.27;5.45;;;16.70;99.90;;;;;;4992985;28;20125;-71
2022/10/13 12:25:05;;;;;;;12.77;6.55;;;16.90;99.90;;;;;;4983264;28;20022;-71
2022/10/13 12:27:56;;;;;;;15.10;5.95;;;16.80;99.90;;;;;;4991895;28;20054;-71
2022/10/13 12:30:27;;;;;;;11.10;5.53;;;16.70;99.90;;;;;;4975771;28;20133;-72
2022/10/13 12:32:56;;;;;;;12.75;5.88;;;16.60;99.90;;;;;;4974664;28;20026;-72
2022/10/13 12:35:31;;;;;;;17.20;6.40;;;16.40;99.90;;;;;;4974247;28;20070;-72
2022/10/13 12:38:02;;;;;;;22.67;6.00;;;16.50;99.90;;;;;;4974337;28;20038;-72
2022/10/13 12:40:29;;;;;;;10.52;5.55;;;16.30;99.90;;;;;;4974637;28;20034;-70
2022/10/13 12:42:55;;;;;;;17.33;7.07;;;16.00;99.90;;;;;;4973878;28;20501;-71
2022/10/13 12:45:27;;;;;;;15.13;7.40;;;16.10;99.90;;;;;;4974155;28;20045;-70
2022/10/13 12:47:54;;;;;;;12.07;5.93;;;15.90;99.90;;;;;;4974346;28;20490;-69
2022/10/13 12:50:36;;;;;;;7.93;4.80;;;16.00;99.90;;;;;;4991405;28;20042;-69
2022/10/13 12:53:20;;;;;;;14.02;6.10;;;15.90;99.90;;;;;;4972998;28;20030;-69
2022/10/13 12:55:59;;;;;;;8.95;5.25;;;15.90;99.90;;;;;;5003559;28;20339;-70
2022/10/13 12:58:34;;;;;;;12.60;6.22;;;15.90;99.90;;;;;;5004527;28;20022;-69
2022/10/13 13:01:12;;;;;;;12.98;5.38;;;15.70;99.90;;;;;;5004647;28;20030;-69
2022/10/13 13:03:42;;;;;;;8.95;4.78;;;15.70;99.90;;;;;;4989347;28;20402;-69